Time;durP1;ratioP1;P1;durP2;ratioP2;P2;SDS_P1;SDS_P2;PMS_P1;PMS_P2;Temp;Humidity;BMP_temperature;BMP_pressure;BME280_temperature;BME280_humidity;BME280_pressure;Samples;Min_cycle;Max_cycle;Signal;HPM_P1;HPM_P2
2022/11/26 00:01:13;;;;;;;25.77;18.00;;;8.20;1.00;;;;;;5094808;28;20248;-80
2022/11/26 00:03:41;;;;;;;26.40;18.25;;;8.20;1.00;;;;;;5088685;28;20254;-80
2022/11/26 00:06:24;;;;;;;24.95;18.58;;;8.30;1.00;;;;;;5084740;28;20267;-81
2022/11/26 00:08:50;;;;;;;26.98;20.92;;;8.20;1.00;;;;;;5096583;28;20262;-80
2022/11/26 00:11:22;;;;;;;30.27;22.65;;;8.20;1.00;;;;;;5097165;28;20750;-77
2022/11/26 00:13:49;;;;;;;28.77;21.35;;;8.20;1.00;;;;;;5101060;28;20238;-78
2022/11/26 00:16:20;;;;;;;30.08;22.60;;;8.20;1.00;;;;;;5097376;28;20240;-79
2022/11/26 00:18:49;;;;;;;33.53;23.67;;;8.10;1.00;;;;;;5094457;28;20250;-78
2022/11/26 00:21:27;;;;;;;36.47;24.75;;;8.10;1.00;;;;;;5096363;28;20270;-79
2022/11/26 00:23:54;;;;;;;33.58;23.65;;;8.10;1.00;;;;;;5090679;28;20239;-78
2022/11/26 00:26:29;;;;;;;39.10;24.23;;;8.20;1.00;;;;;;5084349;28;20235;-79
2022/11/26 00:29:02;;;;;;;37.08;24.15;;;8.10;1.00;;;;;;5092958;28;20442;-80
2022/11/26 00:31:31;;;;;;;39.50;25.65;;;8.10;1.00;;;;;;5091187;28;20226;-78
2022/11/26 00:34:09;;;;;;;30.95;22.70;;;8.10;1.00;;;;;;5095170;28;20678;-79
2022/11/26 00:36:36;;;;;;;34.15;25.95;;;8.20;1.00;;;;;;5095979;28;20316;-81
2022/11/26 00:39:07;;;;;;;35.13;24.80;;;8.20;1.00;;;;;;5097095;28;20246;-79
2022/11/26 00:41:37;;;;;;;39.67;23.50;;;8.20;1.00;;;;;;5077205;28;20318;-80
2022/11/26 00:44:15;;;;;;;39.38;23.80;;;8.30;1.00;;;;;;5100365;27;20328;-80
2022/11/26 00:46:43;;;;;;;31.73;22.85;;;8.30;1.00;;;;;;5091430;28;20292;-82
2022/11/26 00:49:15;;;;;;;35.38;24.08;;;8.30;1.00;;;;;;5095172;28;20238;-80
2022/11/26 00:51:45;;;;;;;37.53;25.08;;;8.30;1.00;;;;;;5094185;28;20859;-80
2022/11/26 00:54:19;;;;;;;42.22;25.98;;;8.30;1.00;;;;;;5081535;28;20331;-80
2022/11/26 00:56:47;;;;;;;37.15;25.00;;;8.20;1.00;;;;;;5076978;28;20253;-80
2022/11/26 00:59:17;;;;;;;42.28;25.02;;;8.20;1.00;;;;;;5091824;28;20237;-81
2022/11/26 01:01:46;;;;;;;39.88;25.00;;;8.20;1.00;;;;;;5084071;28;20232;-80
2022/11/26 01:04:25;;;;;;;46.75;26.27;;;8.30;1.00;;;;;;5084795;28;20239;-78
2022/11/26 01:06:54;;;;;;;37.05;25.85;;;8.20;1.00;;;;;;5088063;28;20224;-80
2022/11/26 01:09:23;;;;;;;32.58;23.25;;;8.30;1.00;;;;;;5085983;28;20282;-80
2022/11/26 01:11:51;;;;;;;37.63;25.75;;;8.30;1.00;;;;;;5083869;28;20237;-80
2022/11/26 01:14:31;;;;;;;37.72;25.48;;;8.30;1.00;;;;;;5090318;28;20232;-81
2022/11/26 01:17:25;;;;;;;38.47;25.13;;;8.40;1.00;;;;;;5088867;28;20240;-79
2022/11/26 01:20:14;;;;;;;33.95;23.65;;;8.40;1.00;;;;;;5095427;28;20229;-80
2022/11/26 01:22:45;;;;;;;31.85;24.52;;;8.40;1.00;;;;;;5102838;28;20237;-80
2022/11/26 01:25:14;;;;;;;45.47;25.73;;;8.40;1.00;;;;;;5099081;28;20242;-79
2022/11/26 01:27:45;;;;;;;46.30;25.88;;;8.40;1.00;;;;;;5072460;28;20227;-80
2022/11/26 01:30:24;;;;;;;38.95;23.85;;;8.40;1.00;;;;;;5087182;28;20236;-80
2022/11/26 01:32:59;;;;;;;41.60;25.60;;;8.40;1.00;;;;;;5090245;28;20236;-78
2022/11/26 01:35:33;;;;;;;34.38;22.00;;;8.40;1.00;;;;;;5058439;28;20791;-79
2022/11/26 01:38:05;;;;;;;39.97;25.13;;;8.50;1.00;;;;;;5094797;28;20258;-78
2022/11/26 01:41:16;;;;;;;41.97;25.42;;;8.50;1.00;;;;;;5101293;28;20441;-81
2022/11/26 01:44:04;;;;;;;37.95;24.65;;;8.50;1.00;;;;;;5084662;28;20252;-77
2022/11/26 01:46:46;;;;;;;38.20;25.00;;;8.50;1.00;;;;;;5087068;28;20226;-80
2022/11/26 01:49:34;;;;;;;42.08;26.05;;;8.50;1.00;;;;;;5084708;28;20231;-79
2022/11/26 01:52:14;;;;;;;38.88;24.13;;;8.50;1.00;;;;;;5095144;28;20216;-79
2022/11/26 01:54:44;;;;;;;38.38;23.40;;;8.50;1.00;;;;;;5103126;28;20234;-78
2022/11/26 01:57:19;;;;;;;40.50;24.13;;;8.50;1.00;;;;;;5079045;28;20287;-79
2022/11/26 02:00:05;;;;;;;37.07;24.43;;;8.40;1.00;;;;;;5072533;28;20282;-79
2022/11/26 02:02:45;;;;;;;36.70;22.25;;;8.50;1.00;;;;;;5033036;28;20435;-81
2022/11/26 02:05:47;;;;;;;41.28;22.92;;;8.50;1.00;;;;;;5045014;28;20287;-80
2022/11/26 02:11:26;;;;;;;31.70;22.00;;;8.60;1.00;;;;;;5072748;28;20238;-81
2022/11/26 02:14:15;;;;;;;42.67;22.23;;;8.60;1.00;;;;;;5041596;28;21365;-81
2022/11/26 02:23:43;;;;;;;34.42;21.67;;;8.70;1.00;;;;;;5076160;28;20250;-77
2022/11/26 02:27:00;;;;;;;33.80;22.40;;;8.70;1.00;;;;;;5093209;28;20234;-78
2022/11/26 02:30:01;;;;;;;39.47;22.00;;;8.70;1.00;;;;;;5085965;27;20456;-82
2022/11/26 02:32:38;;;;;;;38.50;22.80;;;8.60;1.00;;;;;;5050847;28;20237;-80
2022/11/26 02:35:14;;;;;;;31.83;20.90;;;8.60;1.00;;;;;;5084387;28;20334;-81
2022/11/26 02:37:48;;;;;;;35.13;21.67;;;8.60;1.00;;;;;;5093453;28;20242;-81
2022/11/26 02:40:15;;;;;;;32.95;20.35;;;8.60;1.00;;;;;;5099204;28;20321;-80
2022/11/26 02:42:45;;;;;;;32.80;20.40;;;8.60;1.00;;;;;;5088842;28;20231;-81
2022/11/26 02:45:21;;;;;;;41.53;22.75;;;8.70;1.00;;;;;;5091341;27;20229;-81
2022/11/26 02:48:04;;;;;;;39.40;22.27;;;8.70;1.00;;;;;;5096886;27;20312;-81
2022/11/26 02:50:43;;;;;;;30.73;19.75;;;8.70;1.00;;;;;;5096319;28;20264;-81
2022/11/26 02:53:16;;;;;;;37.92;20.98;;;8.70;1.00;;;;;;5094555;28;20237;-80
2022/11/26 02:55:50;;;;;;;34.58;21.73;;;8.70;1.00;;;;;;5102289;27;20216;-80
2022/11/26 02:58:17;;;;;;;38.58;23.60;;;8.80;1.00;;;;;;5100947;28;20234;-81
2022/11/26 03:00:48;;;;;;;39.40;21.23;;;8.70;1.00;;;;;;5097825;28;20256;-80
2022/11/26 03:03:25;;;;;;;40.25;23.05;;;8.70;1.00;;;;;;5087810;28;20446;-77
2022/11/26 03:05:58;;;;;;;42.45;24.05;;;8.70;1.00;;;;;;5102509;28;20229;-77
2022/11/26 03:08:26;;;;;;;47.15;24.55;;;8.60;1.00;;;;;;5093680;28;20239;-80
2022/11/26 03:11:00;;;;;;;46.60;24.05;;;8.50;1.00;;;;;;5097352;28;20252;-79
2022/11/26 03:13:34;;;;;;;53.13;28.45;;;8.60;1.00;;;;;;5091201;28;20246;-80
2022/11/26 03:16:03;;;;;;;46.47;26.13;;;8.50;1.00;;;;;;5096585;28;20664;-79
2022/11/26 03:18:35;;;;;;;47.38;26.15;;;8.60;1.00;;;;;;5095158;28;20251;-80
2022/11/26 03:21:05;;;;;;;49.05;27.40;;;8.60;1.00;;;;;;5088267;28;20263;-78
2022/11/26 03:23:35;;;;;;;43.67;25.27;;;8.60;1.00;;;;;;5090975;28;20248;-80
2022/11/26 03:26:05;;;;;;;47.20;25.17;;;8.70;1.00;;;;;;5083282;28;20459;-77
2022/11/26 03:28:35;;;;;;;43.13;24.98;;;8.70;1.00;;;;;;5098142;27;20435;-80
2022/11/26 03:31:06;;;;;;;48.22;27.20;;;8.70;1.00;;;;;;5099883;28;20271;-80
2022/11/26 03:33:37;;;;;;;47.57;25.57;;;8.70;1.00;;;;;;5097757;28;20221;-80
2022/11/26 03:36:06;;;;;;;43.47;25.48;;;8.70;1.00;;;;;;5098299;28;20420;-80
2022/11/26 03:38:33;;;;;;;45.60;24.40;;;8.60;1.00;;;;;;5090426;28;20274;-81
2022/11/26 03:41:02;;;;;;;43.47;26.13;;;8.50;1.00;;;;;;5087232;28;20242;-80
2022/11/26 03:43:29;;;;;;;45.50;25.83;;;8.50;1.00;;;;;;5088567;28;20271;-80
2022/11/26 03:45:59;;;;;;;46.22;25.88;;;8.50;1.00;;;;;;5091980;28;21102;-80
2022/11/26 03:48:26;;;;;;;43.83;26.13;;;8.50;1.00;;;;;;5077171;28;20331;-80
2022/11/26 03:50:57;;;;;;;37.88;26.35;;;8.50;1.00;;;;;;5096011;28;20431;-80
2022/11/26 03:53:25;;;;;;;47.25;27.42;;;8.50;1.00;;;;;;5097341;28;20239;-81
2022/11/26 03:55:53;;;;;;;45.10;26.20;;;8.50;1.00;;;;;;5095755;27;20246;-81
2022/11/26 03:58:21;;;;;;;53.92;28.35;;;8.50;1.00;;;;;;5094193;28;20327;-80
2022/11/26 04:00:52;;;;;;;46.63;24.90;;;8.50;1.00;;;;;;5097058;28;20327;-80
2022/11/26 04:03:25;;;;;;;47.40;26.35;;;8.50;1.00;;;;;;5092329;28;20230;-81
2022/11/26 04:05:56;;;;;;;44.77;27.20;;;8.60;1.00;;;;;;5095997;28;20226;-79
2022/11/26 04:08:24;;;;;;;49.22;28.60;;;8.60;1.00;;;;;;5098003;28;20456;-81
2022/11/26 04:10:55;;;;;;;52.85;30.75;;;8.60;1.00;;;;;;5096439;28;20273;-82
2022/11/26 04:13:27;;;;;;;44.00;28.00;;;8.60;1.00;;;;;;5097046;28;20239;-82
2022/11/26 04:15:56;;;;;;;53.03;27.50;;;8.60;1.00;;;;;;5103256;28;21287;-81
2022/11/26 04:18:26;;;;;;;57.47;31.45;;;8.60;1.00;;;;;;5076103;28;20309;-81
2022/11/26 04:21:08;;;;;;;58.75;29.58;;;8.50;1.00;;;;;;5070225;27;20251;-81
2022/11/26 04:23:38;;;;;;;53.00;30.30;;;8.50;1.00;;;;;;5030184;28;20964;-81
2022/11/26 04:26:22;;;;;;;55.53;30.83;;;8.50;1.00;;;;;;5064918;28;21008;-80
2022/11/26 04:28:54;;;;;;;50.35;30.42;;;8.50;1.00;;;;;;5093756;28;20436;-80
2022/11/26 04:31:24;;;;;;;55.75;30.55;;;8.60;1.00;;;;;;5087287;28;20271;-76
2022/11/26 04:33:52;;;;;;;53.30;31.33;;;8.60;1.00;;;;;;5088644;28;20249;-79
2022/11/26 04:36:22;;;;;;;53.20;29.92;;;8.60;1.00;;;;;;5095458;28;21297;-79
2022/11/26 04:39:02;;;;;;;56.08;32.75;;;8.60;1.00;;;;;;5091408;28;20236;-80
2022/11/26 04:41:32;;;;;;;60.65;32.88;;;8.50;1.00;;;;;;5091863;28;20295;-79
2022/11/26 04:44:02;;;;;;;51.92;29.15;;;8.60;1.00;;;;;;5084192;28;21046;-77
2022/11/26 04:46:29;;;;;;;56.90;29.63;;;8.60;1.00;;;;;;5081353;28;20338;-77
2022/11/26 04:48:56;;;;;;;52.30;29.58;;;8.50;1.00;;;;;;5083065;28;20240;-76
2022/11/26 04:51:25;;;;;;;52.55;29.90;;;8.50;1.00;;;;;;5092779;28;20243;-79
2022/11/26 04:53:52;;;;;;;53.00;29.75;;;8.50;1.00;;;;;;5092695;28;21049;-80
2022/11/26 04:56:23;;;;;;;51.50;28.63;;;8.50;1.00;;;;;;5093670;28;20253;-80
2022/11/26 04:58:50;;;;;;;56.88;26.73;;;8.50;1.00;;;;;;5097933;28;20234;-81
2022/11/26 05:01:19;;;;;;;49.28;26.95;;;8.50;1.00;;;;;;5082713;28;20234;-81
2022/11/26 05:03:46;;;;;;;56.05;29.00;;;8.50;1.00;;;;;;5084271;28;20249;-82
2022/11/26 05:06:13;;;;;;;51.42;28.67;;;8.50;1.00;;;;;;5086722;28;20933;-81
2022/11/26 05:08:41;;;;;;;52.33;29.65;;;8.50;1.00;;;;;;5091520;28;20277;-78
2022/11/26 05:11:08;;;;;;;54.45;30.70;;;8.50;1.00;;;;;;5089747;28;21215;-81
2022/11/26 05:13:35;;;;;;;55.38;31.10;;;8.50;1.00;;;;;;5090635;28;20270;-81
2022/11/26 05:16:02;;;;;;;50.85;32.30;;;8.50;1.00;;;;;;5088147;28;20316;-80
2022/11/26 05:18:29;;;;;;;55.15;29.65;;;8.50;1.00;;;;;;5085069;28;20318;-81
2022/11/26 05:21:05;;;;;;;51.53;29.65;;;8.50;1.00;;;;;;5092357;28;20246;-83
2022/11/26 05:23:33;;;;;;;52.38;30.30;;;8.60;1.00;;;;;;5094685;28;20234;-83
2022/11/26 05:26:10;;;;;;;57.97;32.20;;;8.60;1.00;;;;;;5093358;28;20241;-83
2022/11/26 05:28:42;;;;;;;49.28;28.60;;;8.60;1.00;;;;;;5096834;28;20250;-83
2022/11/26 05:31:15;;;;;;;48.88;28.83;;;8.60;1.00;;;;;;5098666;28;20294;-82
2022/11/26 05:33:44;;;;;;;44.15;27.80;;;8.60;1.00;;;;;;5095977;28;20235;-80
2022/11/26 05:36:14;;;;;;;37.47;25.50;;;8.60;1.00;;;;;;5097910;28;20260;-83
2022/11/26 05:38:44;;;;;;;44.08;26.45;;;8.60;1.00;;;;;;5099704;28;20521;-82
2022/11/26 05:41:17;;;;;;;37.92;23.13;;;8.60;1.00;;;;;;5102359;28;20236;-83
2022/11/26 05:43:44;;;;;;;35.38;23.00;;;8.50;1.00;;;;;;5097091;28;20243;-83
2022/11/26 05:46:17;;;;;;;36.90;23.08;;;8.50;1.00;;;;;;5094934;28;20308;-83
2022/11/26 05:48:45;;;;;;;41.50;23.52;;;8.40;1.00;;;;;;5094530;28;20244;-83
2022/11/26 05:51:12;;;;;;;37.95;24.02;;;8.40;1.00;;;;;;5095525;28;20241;-83
2022/11/26 05:53:39;;;;;;;33.63;21.35;;;8.40;1.00;;;;;;5078115;28;20240;-83
2022/11/26 05:56:07;;;;;;;39.38;23.90;;;8.40;1.00;;;;;;5067221;28;20256;-82
2022/11/26 05:58:37;;;;;;;37.22;24.00;;;8.40;1.00;;;;;;5091590;27;20237;-82
2022/11/26 06:01:08;;;;;;;34.75;21.15;;;8.30;1.00;;;;;;5086249;27;20330;-83
2022/11/26 06:03:38;;;;;;;42.17;24.80;;;8.40;1.00;;;;;;5073590;27;20248;-83
2022/11/26 06:06:06;;;;;;;43.20;23.08;;;8.40;1.00;;;;;;5097079;27;21010;-82
2022/11/26 06:08:37;;;;;;;37.75;23.02;;;8.40;1.00;;;;;;5093003;28;20227;-79
2022/11/26 06:11:05;;;;;;;36.13;21.92;;;8.40;1.00;;;;;;5086723;28;20241;-81
2022/11/26 06:13:36;;;;;;;43.45;22.05;;;8.40;1.00;;;;;;5093101;28;20240;-79
2022/11/26 06:16:05;;;;;;;34.95;22.00;;;8.40;1.00;;;;;;5095508;28;20292;-83
2022/11/26 06:18:40;;;;;;;35.30;22.55;;;8.40;1.00;;;;;;5088658;27;20294;-80
2022/11/26 06:21:08;;;;;;;38.70;24.00;;;8.40;1.00;;;;;;5111637;27;20725;-84
2022/11/26 06:23:37;;;;;;;38.03;21.98;;;8.40;1.00;;;;;;5080567;28;20227;-82
2022/11/26 06:26:08;;;;;;;36.22;22.55;;;8.40;1.00;;;;;;5098178;28;20223;-83
2022/11/26 06:28:37;;;;;;;39.63;23.70;;;8.40;1.00;;;;;;5073173;28;20218;-82
2022/11/26 06:31:08;;;;;;;33.53;20.63;;;8.40;1.00;;;;;;5094139;28;20800;-81
2022/11/26 06:33:38;;;;;;;36.50;19.38;;;8.40;1.00;;;;;;5100023;28;20244;-82
2022/11/26 06:36:06;;;;;;;28.60;19.25;;;8.40;1.00;;;;;;5087269;28;20245;-82
2022/11/26 06:38:39;;;;;;;32.42;17.63;;;8.40;1.00;;;;;;5068619;28;20233;-80
2022/11/26 06:41:08;;;;;;;31.17;19.45;;;8.40;1.00;;;;;;5071465;28;20239;-80
2022/11/26 06:43:37;;;;;;;30.85;18.63;;;8.40;1.00;;;;;;5076523;27;20296;-83
2022/11/26 06:46:08;;;;;;;33.03;17.02;;;8.40;1.00;;;;;;5081962;28;20270;-84
2022/11/26 06:48:38;;;;;;;32.60;18.85;;;8.40;1.00;;;;;;5073552;28;20245;-83
2022/11/26 06:51:07;;;;;;;31.25;18.15;;;8.40;1.00;;;;;;5110753;27;20730;-83
2022/11/26 06:53:44;;;;;;;35.22;18.75;;;8.40;1.00;;;;;;5086986;28;20245;-79
2022/11/26 06:56:20;;;;;;;39.45;21.45;;;8.40;1.00;;;;;;5073245;27;20267;-80
2022/11/26 06:58:48;;;;;;;28.20;17.33;;;8.50;1.00;;;;;;5090891;28;20207;-81
2022/11/26 07:01:20;;;;;;;33.58;19.83;;;8.50;1.00;;;;;;5073083;28;20308;-78
2022/11/26 07:03:49;;;;;;;30.40;20.17;;;8.50;1.00;;;;;;5092945;28;20277;-81
2022/11/26 07:06:17;;;;;;;38.47;20.63;;;8.50;1.00;;;;;;5093203;28;20285;-79
2022/11/26 07:08:53;;;;;;;35.92;22.23;;;8.50;1.00;;;;;;5091884;28;20231;-83
2022/11/26 07:11:26;;;;;;;35.42;19.88;;;8.50;1.00;;;;;;5096470;28;20241;-81
2022/11/26 07:13:53;;;;;;;35.55;20.88;;;8.50;1.00;;;;;;5095677;28;20242;-80
2022/11/26 07:16:27;;;;;;;38.73;20.50;;;8.50;1.00;;;;;;5092584;28;20977;-80
2022/11/26 07:18:56;;;;;;;34.63;20.45;;;8.50;1.00;;;;;;5095589;28;20461;-82
2022/11/26 07:21:34;;;;;;;32.72;19.70;;;8.40;1.00;;;;;;5096178;28;20243;-84
2022/11/26 07:24:09;;;;;;;35.90;19.80;;;8.40;1.00;;;;;;5092856;28;20351;-80
2022/11/26 07:26:38;;;;;;;35.20;21.83;;;8.50;1.00;;;;;;5084902;28;21046;-79
2022/11/26 07:29:08;;;;;;;34.83;21.05;;;8.50;1.00;;;;;;5095747;28;20240;-82
2022/11/26 07:31:36;;;;;;;29.98;19.90;;;8.50;1.00;;;;;;5088066;28;20244;-79
2022/11/26 07:34:07;;;;;;;36.38;21.75;;;8.50;1.00;;;;;;5095171;28;20219;-79
2022/11/26 07:36:35;;;;;;;33.58;21.33;;;8.50;1.00;;;;;;5095415;28;20323;-83
2022/11/26 07:39:09;;;;;;;36.65;22.35;;;8.50;1.00;;;;;;5091374;28;20233;-82
2022/11/26 07:41:36;;;;;;;37.38;19.42;;;8.50;1.00;;;;;;5094025;28;20324;-83
2022/11/26 07:44:03;;;;;;;34.08;18.25;;;8.50;1.00;;;;;;5097609;28;20229;-83
2022/11/26 07:46:30;;;;;;;43.08;19.02;;;8.50;1.00;;;;;;5092302;28;20386;-80
2022/11/26 07:49:00;;;;;;;32.50;18.05;;;8.50;1.00;;;;;;5088774;28;20243;-79
2022/11/26 07:51:31;;;;;;;27.63;16.05;;;8.50;1.00;;;;;;5091412;28;20416;-81
2022/11/26 07:53:59;;;;;;;28.38;17.52;;;8.50;1.00;;;;;;5088982;28;20235;-84
2022/11/26 07:56:29;;;;;;;24.73;16.55;;;8.50;1.00;;;;;;5061855;28;20296;-78
2022/11/26 07:59:00;;;;;;;29.25;16.45;;;8.60;1.00;;;;;;5079391;28;20243;-79
2022/11/26 08:01:30;;;;;;;32.95;16.58;;;8.50;1.00;;;;;;5082700;28;20252;-78
2022/11/26 08:04:07;;;;;;;28.65;16.42;;;8.60;1.00;;;;;;5089219;28;20230;-80
2022/11/26 08:06:40;;;;;;;32.67;16.77;;;8.60;1.00;;;;;;5094535;28;20256;-77
2022/11/26 08:09:07;;;;;;;26.25;16.33;;;8.70;1.00;;;;;;5086101;28;20721;-79
2022/11/26 08:11:39;;;;;;;26.30;15.90;;;8.70;1.00;;;;;;5094935;28;20225;-79
2022/11/26 08:14:20;;;;;;;23.98;14.10;;;8.60;1.00;;;;;;5096277;28;20245;-80
2022/11/26 08:16:51;;;;;;;24.37;13.90;;;8.70;1.00;;;;;;5094853;28;20267;-80
2022/11/26 08:19:20;;;;;;;22.10;14.13;;;8.60;1.00;;;;;;5093784;28;20444;-79
2022/11/26 08:21:47;;;;;;;35.05;16.23;;;8.70;1.00;;;;;;5096737;28;20257;-81
2022/11/26 08:24:20;;;;;;;32.00;15.93;;;8.70;1.00;;;;;;5098181;28;20270;-80
2022/11/26 08:26:48;;;;;;;24.90;15.75;;;8.70;1.00;;;;;;5097113;28;20242;-81
2022/11/26 08:29:18;;;;;;;35.30;18.02;;;8.70;1.00;;;;;;5097947;28;20271;-80
2022/11/26 08:31:46;;;;;;;26.63;16.17;;;8.70;1.00;;;;;;5085564;28;20250;-82
2022/11/26 08:34:14;;;;;;;34.50;15.82;;;8.80;1.00;;;;;;5100794;28;20248;-81
2022/11/26 08:36:50;;;;;;;29.57;16.50;;;8.90;1.00;;;;;;5094313;28;20235;-81
2022/11/26 08:39:18;;;;;;;31.87;15.67;;;8.80;1.00;;;;;;5094376;28;21265;-82
2022/11/26 08:41:49;;;;;;;23.27;14.80;;;8.80;1.00;;;;;;5093998;28;20436;-82
2022/11/26 08:44:17;;;;;;;32.10;15.75;;;8.80;1.00;;;;;;5086372;28;20252;-83
2022/11/26 08:46:50;;;;;;;31.50;15.23;;;8.90;1.00;;;;;;5092577;28;20267;-83
2022/11/26 08:49:17;;;;;;;22.15;14.52;;;9.00;1.00;;;;;;5092549;28;20553;-83
2022/11/26 08:51:49;;;;;;;27.45;14.38;;;8.90;1.00;;;;;;5087351;28;20228;-81
2022/11/26 08:54:16;;;;;;;32.25;15.07;;;8.90;1.00;;;;;;5093793;27;20277;-80
2022/11/26 08:56:51;;;;;;;24.23;14.83;;;8.90;1.00;;;;;;5091452;28;20236;-77
2022/11/26 08:59:21;;;;;;;24.23;13.65;;;8.90;1.00;;;;;;5086059;28;20530;-80
2022/11/26 09:01:49;;;;;;;22.93;13.27;;;8.90;1.00;;;;;;5090748;28;20299;-79
2022/11/26 09:04:16;;;;;;;28.20;13.00;;;8.90;1.00;;;;;;5093969;28;20552;-82
2022/11/26 09:06:43;;;;;;;22.33;12.23;;;8.90;1.00;;;;;;5081179;28;20326;-80
2022/11/26 09:09:16;;;;;;;18.63;11.17;;;8.90;1.00;;;;;;5084911;28;20764;-79
2022/11/26 09:11:46;;;;;;;30.40;13.40;;;9.00;1.00;;;;;;5090359;27;20449;-81
2022/11/26 09:14:15;;;;;;;24.88;13.05;;;9.00;1.00;;;;;;5086913;28;20434;-79
2022/11/26 09:16:44;;;;;;;26.63;12.20;;;9.00;1.00;;;;;;5087057;28;20241;-77
2022/11/26 09:19:13;;;;;;;20.63;12.52;;;9.00;1.00;;;;;;5087891;28;20238;-78
2022/11/26 09:21:40;;;;;;;25.77;12.90;;;9.00;1.00;;;;;;5080660;28;20758;-80
2022/11/26 09:24:08;;;;;;;21.58;13.48;;;9.00;1.00;;;;;;5075362;28;20464;-79
2022/11/26 09:26:40;;;;;;;25.37;12.77;;;9.00;1.00;;;;;;5061486;28;20320;-81
2022/11/26 09:29:10;;;;;;;22.07;12.27;;;9.00;1.00;;;;;;5077727;28;20565;-78
2022/11/26 09:31:37;;;;;;;23.40;13.10;;;9.00;1.00;;;;;;5071134;28;21350;-77
2022/11/26 09:34:09;;;;;;;22.42;13.18;;;9.10;1.00;;;;;;5073322;28;20529;-76
2022/11/26 09:36:36;;;;;;;19.27;14.77;;;9.20;1.00;;;;;;5074581;28;20345;-80
2022/11/26 09:39:06;;;;;;;17.27;12.20;;;9.20;1.00;;;;;;5081900;28;20679;-78
2022/11/26 09:41:42;;;;;;;24.98;11.82;;;9.30;1.00;;;;;;5079582;28;23180;-79
2022/11/26 09:44:26;;;;;;;21.13;12.03;;;9.30;1.00;;;;;;5086032;28;21133;-77
2022/11/26 09:47:09;;;;;;;25.83;14.10;;;9.30;1.00;;;;;;5086509;28;20458;-78
2022/11/26 09:49:45;;;;;;;24.00;11.87;;;9.30;1.00;;;;;;5086647;28;20542;-82
2022/11/26 09:55:15;;;;;;;18.10;8.83;;;9.30;1.00;;;;;;5086348;28;20250;-82
2022/11/26 09:57:46;;;;;;;19.60;8.40;;;9.20;1.00;;;;;;5083423;28;20467;-81
2022/11/26 10:00:28;;;;;;;18.38;9.10;;;9.10;1.00;;;;;;5085589;28;20310;-83
2022/11/26 10:02:58;;;;;;;19.90;9.60;;;9.10;1.00;;;;;;5089175;28;20408;-84
2022/11/26 10:05:49;;;;;;;17.77;9.43;;;9.00;1.00;;;;;;5093242;28;20252;-87
2022/11/26 10:08:40;;;;;;;22.77;10.25;;;9.00;1.00;;;;;;5053288;28;20324;-79
2022/11/26 10:11:33;;;;;;;24.30;12.25;;;9.00;1.00;;;;;;5086107;28;20270;-80
2022/11/26 10:14:15;;;;;;;16.97;9.10;;;9.10;1.00;;;;;;5087352;28;20240;-80
2022/11/26 10:16:51;;;;;;;22.60;10.87;;;9.10;1.00;;;;;;5090412;28;20438;-79
2022/11/26 10:19:26;;;;;;;17.80;10.13;;;9.20;1.00;;;;;;5094777;28;20530;-78
2022/11/26 10:21:56;;;;;;;15.53;9.90;;;9.20;1.00;;;;;;5097288;28;20472;-79
2022/11/26 10:24:32;;;;;;;21.98;10.57;;;9.30;1.00;;;;;;5097499;28;20447;-83
2022/11/26 10:27:01;;;;;;;18.87;10.40;;;9.20;1.00;;;;;;5101673;28;20227;-78
2022/11/26 10:29:38;;;;;;;20.73;9.90;;;9.10;1.00;;;;;;5087669;28;20470;-78
2022/11/26 10:32:14;;;;;;;21.53;8.20;;;9.10;1.00;;;;;;5104975;28;20509;-82
2022/11/26 10:34:52;;;;;;;18.85;9.40;;;9.00;1.00;;;;;;5093885;28;20485;-79
2022/11/26 10:37:21;;;;;;;22.80;8.27;;;9.00;1.00;;;;;;5086619;28;20250;-79
2022/11/26 10:39:53;;;;;;;17.90;8.63;;;9.00;1.00;;;;;;5101067;28;20233;-81
2022/11/26 10:42:22;;;;;;;14.50;8.85;;;9.00;1.00;;;;;;5095939;28;20474;-81
2022/11/26 10:44:52;;;;;;;18.00;10.98;;;9.10;1.00;;;;;;5101658;28;20273;-82
2022/11/26 10:47:29;;;;;;;18.83;9.50;;;9.10;1.00;;;;;;5095134;28;21154;-79
2022/11/26 10:50:13;;;;;;;19.00;11.00;;;9.30;1.00;;;;;;5099571;28;20456;-80
2022/11/26 10:52:41;;;;;;;21.77;10.50;;;9.40;1.00;;;;;;5097947;28;20455;-80
2022/11/26 10:55:29;;;;;;;18.40;8.73;;;9.40;1.00;;;;;;5096452;28;20430;-80
2022/11/26 10:58:04;;;;;;;19.50;8.70;;;9.40;1.00;;;;;;5093636;28;20445;-82
2022/11/26 11:00:38;;;;;;;14.75;7.80;;;9.40;1.00;;;;;;5097653;28;21038;-82
2022/11/26 11:03:12;;;;;;;16.38;8.05;;;9.30;1.00;;;;;;5101240;28;20319;-81
2022/11/26 11:05:40;;;;;;;17.50;8.27;;;9.30;1.00;;;;;;5093604;28;20273;-82
2022/11/26 11:08:13;;;;;;;14.33;8.13;;;9.30;1.00;;;;;;5094055;27;20481;-80
2022/11/26 11:10:53;;;;;;;12.27;6.67;;;9.30;1.00;;;;;;5093112;28;20408;-78
2022/11/26 11:13:24;;;;;;;13.67;7.80;;;9.30;1.00;;;;;;5095842;28;20623;-79
2022/11/26 11:16:00;;;;;;;20.13;7.20;;;9.30;1.00;;;;;;5090576;28;20474;-80
2022/11/26 11:18:34;;;;;;;13.37;7.10;;;9.30;1.00;;;;;;5090788;28;21320;-80
2022/11/26 11:23:49;;;;;;;15.57;8.47;;;9.10;1.00;;;;;;5063983;28;20429;-81
2022/11/26 11:26:22;;;;;;;17.50;9.10;;;9.10;1.00;;;;;;5096692;28;20443;-80
2022/11/26 11:28:52;;;;;;;19.50;9.10;;;9.00;1.00;;;;;;5096318;28;20247;-83
2022/11/26 11:31:22;;;;;;;16.63;8.93;;;9.00;1.00;;;;;;5085590;28;20245;-79
2022/11/26 11:33:50;;;;;;;19.50;10.17;;;8.90;1.00;;;;;;5091393;28;20472;-80
2022/11/26 11:36:30;;;;;;;18.15;9.55;;;9.00;1.00;;;;;;5094305;28;20501;-80
2022/11/26 11:38:58;;;;;;;15.50;9.30;;;9.00;1.00;;;;;;5095086;28;20248;-80
2022/11/26 11:41:29;;;;;;;14.37;8.43;;;9.10;1.00;;;;;;5091315;28;20239;-80
2022/11/26 11:44:06;;;;;;;17.42;8.98;;;9.10;1.00;;;;;;5085718;27;20450;-79
2022/11/26 11:47:03;;;;;;;17.50;8.20;;;9.10;1.00;;;;;;5098064;28;20306;-78
2022/11/26 11:49:53;;;;;;;17.37;8.77;;;9.20;1.00;;;;;;5073380;28;20245;-78
2022/11/26 11:52:30;;;;;;;14.30;7.53;;;9.20;1.00;;;;;;5096374;28;20496;-80
2022/11/26 11:55:04;;;;;;;14.17;6.30;;;9.20;1.00;;;;;;5093337;28;21136;-81
2022/11/26 11:58:02;;;;;;;14.10;7.10;;;9.30;1.00;;;;;;5090871;28;20455;-79
2022/11/26 12:00:43;;;;;;;10.68;6.43;;;9.30;1.00;;;;;;5098394;28;20454;-82
2022/11/26 12:03:51;;;;;;;11.40;6.30;;;9.30;1.00;;;;;;5101667;28;20219;-79
2022/11/26 12:06:45;;;;;;;15.18;6.97;;;9.30;1.00;;;;;;5095498;28;20446;-80
2022/11/26 12:09:21;;;;;;;13.95;7.18;;;9.30;1.00;;;;;;5102522;28;20249;-82
2022/11/26 12:11:56;;;;;;;14.50;8.77;;;9.30;1.00;;;;;;5093013;27;20229;-81
2022/11/26 12:14:31;;;;;;;20.23;8.97;;;9.40;1.00;;;;;;5098345;28;20483;-82
2022/11/26 12:17:05;;;;;;;16.43;8.63;;;9.40;1.00;;;;;;5085404;28;20483;-81
2022/11/26 12:19:39;;;;;;;11.40;7.85;;;9.50;1.00;;;;;;5075233;28;21600;-82
2022/11/26 12:22:15;;;;;;;24.63;9.25;;;9.60;1.00;;;;;;5092246;28;20698;-79
2022/11/26 12:24:46;;;;;;;15.00;9.10;;;9.60;1.00;;;;;;5093344;28;20238;-78
2022/11/26 12:27:39;;;;;;;16.25;7.55;;;9.50;1.00;;;;;;5091564;28;20475;-79
2022/11/26 12:30:15;;;;;;;17.83;9.93;;;9.50;1.00;;;;;;5094521;28;20321;-79
2022/11/26 12:32:49;;;;;;;14.40;8.37;;;9.60;1.00;;;;;;5092718;28;20824;-79
2022/11/26 12:35:31;;;;;;;15.70;8.87;;;9.60;1.00;;;;;;5092449;28;20461;-78
2022/11/26 12:38:06;;;;;;;13.20;10.40;;;9.60;1.00;;;;;;5089087;28;20491;-79
2022/11/26 12:40:44;;;;;;;21.60;12.20;;;9.70;1.00;;;;;;5095906;28;20455;-80
2022/11/26 12:43:24;;;;;;;18.80;10.77;;;9.70;1.00;;;;;;5104696;28;20422;-82
2022/11/26 12:46:02;;;;;;;16.60;10.03;;;9.80;1.00;;;;;;5093804;28;20515;-83
2022/11/26 12:48:50;;;;;;;18.27;9.67;;;9.80;1.00;;;;;;5103907;28;20475;-80
2022/11/26 12:51:43;;;;;;;14.83;10.20;;;9.80;1.00;;;;;;5096196;28;20517;-81
2022/11/26 12:54:21;;;;;;;18.30;11.80;;;9.80;1.00;;;;;;5098267;28;20563;-81
2022/11/26 12:57:02;;;;;;;18.60;10.47;;;9.80;1.00;;;;;;5097878;28;20923;-82
2022/11/26 12:59:33;;;;;;;17.07;11.47;;;9.80;1.00;;;;;;5085339;28;20613;-83
2022/11/26 13:02:19;;;;;;;19.93;10.90;;;9.80;1.00;;;;;;5094728;28;20953;-82
2022/11/26 13:04:47;;;;;;;17.80;11.30;;;9.80;1.00;;;;;;5095221;28;20461;-79
2022/11/26 13:07:25;;;;;;;17.97;9.63;;;9.90;1.00;;;;;;5099139;28;20836;-79
2022/11/26 13:10:11;;;;;;;14.87;9.97;;;9.80;1.00;;;;;;5089306;28;20439;-80
2022/11/26 13:12:50;;;;;;;18.20;11.57;;;9.90;1.00;;;;;;5098774;28;20500;-80
2022/11/26 13:15:27;;;;;;;17.70;10.90;;;9.80;1.00;;;;;;5094682;28;21381;-79
2022/11/26 13:18:09;;;;;;;21.00;11.87;;;9.90;1.00;;;;;;5088837;28;20450;-81
2022/11/26 13:20:58;;;;;;;22.90;13.03;;;9.90;1.00;;;;;;5087397;28;21204;-80
2022/11/26 13:23:54;;;;;;;21.43;10.87;;;9.90;1.00;;;;;;5096415;28;21244;-79
2022/11/26 13:26:41;;;;;;;19.10;9.40;;;9.80;1.00;;;;;;5094258;28;20494;-80
2022/11/26 13:29:42;;;;;;;17.40;9.30;;;9.70;1.00;;;;;;5096269;28;20465;-79
2022/11/26 13:32:32;;;;;;;15.77;8.90;;;9.50;1.00;;;;;;5095588;28;20449;-79
2022/11/26 13:35:15;;;;;;;19.83;9.90;;;9.50;1.00;;;;;;5079582;28;20627;-80
2022/11/26 13:38:03;;;;;;;13.93;9.30;;;9.50;1.00;;;;;;5090356;28;20852;-79